createdAt,value
2019-05-26T00:01:43.717Z,10.37
2019-05-26T00:06:49.319Z,8.70
2019-05-26T00:11:54.908Z,9.63
2019-05-26T00:17:00.450Z,9.70
2019-05-26T00:22:06.553Z,7.80
2019-05-26T00:27:12.220Z,9.10
2019-05-26T00:32:17.775Z,13.93
2019-05-26T00:37:23.298Z,9.40
2019-05-26T00:42:29.959Z,9.77
2019-05-26T00:47:36.002Z,14.80
2019-05-26T00:52:45.695Z,11.17
2019-05-26T00:57:53.268Z,13.10
2019-05-26T01:02:58.376Z,9.40
2019-05-26T01:08:06.792Z,14.00
2019-05-26T01:13:12.173Z,13.63
2019-05-26T01:18:17.726Z,16.53
2019-05-26T01:23:27.316Z,11.80
2019-05-26T01:28:32.916Z,12.37
2019-05-26T01:33:38.418Z,12.03
2019-05-26T01:38:44.383Z,12.17
2019-05-26T01:43:49.974Z,11.57
2019-05-26T01:48:55.476Z,15.67
2019-05-26T01:54:01.681Z,11.50
2019-05-26T01:59:07.364Z,12.00
2019-05-26T02:04:12.921Z,15.43
2019-05-26T02:09:22.007Z,11.90
2019-05-26T02:14:28.532Z,16.30
2019-05-26T02:19:34.064Z,17.67
2019-05-26T02:24:41.751Z,15.20
2019-05-26T02:29:47.364Z,16.90
2019-05-26T02:34:52.916Z,15.53
2019-05-26T02:39:58.337Z,15.60
2019-05-26T02:45:08.744Z,17.53
2019-05-26T02:50:20.655Z,14.20
2019-05-26T02:55:23.507Z,13.90
2019-05-26T03:00:42.462Z,11.73
2019-05-26T03:05:48.897Z,15.20
2019-05-26T03:10:56.982Z,11.90
2019-05-26T03:16:05.107Z,13.60
2019-05-26T03:21:13.850Z,15.17
2019-05-26T03:26:23.353Z,14.43
2019-05-26T03:31:31.897Z,14.77
2019-05-26T03:36:37.429Z,13.90
2019-05-26T03:41:44.168Z,18.47
2019-05-26T03:46:49.662Z,13.93
2019-05-26T03:51:56.141Z,16.33
2019-05-26T03:57:03.099Z,12.13
2019-05-26T04:02:08.777Z,13.13
2019-05-26T04:07:14.313Z,14.50
2019-05-26T04:12:19.816Z,11.73
2019-05-26T04:17:25.956Z,15.00
2019-05-26T04:22:31.757Z,14.57
2019-05-26T04:27:37.360Z,15.77
2019-05-26T04:32:42.872Z,13.63
2019-05-26T04:37:48.406Z,13.50
2019-05-26T04:42:53.846Z,14.70
2019-05-26T04:47:59.276Z,11.40
2019-05-26T04:53:07.131Z,15.30
2019-05-26T04:58:13.376Z,12.10
2019-05-26T05:03:18.889Z,7.47
2019-05-26T05:08:25.033Z,10.07
2019-05-26T05:13:31.138Z,9.90
2019-05-26T05:18:42.446Z,8.90
2019-05-26T05:23:48.933Z,10.60
2019-05-26T05:28:54.782Z,7.73
2019-05-26T05:34:02.298Z,10.77
2019-05-26T05:39:10.200Z,8.67
2019-05-26T05:44:15.786Z,11.30
2019-05-26T05:49:21.248Z,10.43
2019-05-26T05:54:26.738Z,12.97
2019-05-26T05:59:32.265Z,11.50
2019-05-26T06:04:37.863Z,11.40
2019-05-26T06:09:43.396Z,7.57
2019-05-26T06:14:48.907Z,12.50
2019-05-26T06:19:55.584Z,8.63
2019-05-26T06:25:01.176Z,7.77
2019-05-26T06:30:09.037Z,9.00
2019-05-26T06:35:16.289Z,5.90
2019-05-26T06:40:21.968Z,9.27
2019-05-26T06:45:27.466Z,6.93
2019-05-26T06:50:35.366Z,5.90
2019-05-26T06:55:40.879Z,4.67
2019-05-26T07:00:46.497Z,5.57
2019-05-26T07:05:52.079Z,7.77
2019-05-26T07:10:59.845Z,7.50
2019-05-26T07:16:05.709Z,4.80
2019-05-26T07:21:14.133Z,6.40
2019-05-26T07:26:19.719Z,8.93
2019-05-26T07:31:27.170Z,11.50
2019-05-26T07:36:33.429Z,10.00
2019-05-26T07:41:39.395Z,3.30
2019-05-26T07:46:46.057Z,4.27
2019-05-26T07:51:51.755Z,3.60
2019-05-26T07:56:59.261Z,3.93
2019-05-26T08:02:05.358Z,4.60
2019-05-26T08:07:11.260Z,4.77
2019-05-26T08:12:26.899Z,4.90
2019-05-26T08:17:27.128Z,5.60
2019-05-26T08:22:32.727Z,4.53
2019-05-26T08:27:38.234Z,3.93
2019-05-26T08:32:47.757Z,5.00
2019-05-26T08:37:54.413Z,4.93
2019-05-26T08:42:59.975Z,5.17
2019-05-26T08:48:06.163Z,5.23
2019-05-26T08:53:19.654Z,3.73
2019-05-26T08:58:29.182Z,5.40
2019-05-26T09:03:35.006Z,5.70
2019-05-26T09:08:48.597Z,5.77
2019-05-26T09:13:52.871Z,4.90
2019-05-26T09:18:58.430Z,6.20
2019-05-26T09:24:04.151Z,3.90
2019-05-26T09:29:09.659Z,4.63
2019-05-26T09:34:17.712Z,4.60
2019-05-26T09:39:24.481Z,5.10
2019-05-26T09:44:30.112Z,4.87
2019-05-26T09:49:35.719Z,5.40
2019-05-26T09:54:41.320Z,4.00
2019-05-26T09:59:48.369Z,10.53
2019-05-26T10:04:54.351Z,5.13
2019-05-26T10:09:59.894Z,5.90
2019-05-26T10:15:10.118Z,4.50
2019-05-26T10:20:16.125Z,4.17
2019-05-26T10:25:23.601Z,4.50
2019-05-26T10:30:29.219Z,5.00
2019-05-26T10:35:34.948Z,5.37
2019-05-26T10:40:40.726Z,3.50
2019-05-26T10:45:47.404Z,5.90
2019-05-26T10:50:53.022Z,3.63
2019-05-26T10:56:01.222Z,7.00
2019-05-26T11:01:07.018Z,3.93
2019-05-26T11:06:12.738Z,3.67
2019-05-26T11:11:20.584Z,4.50
2019-05-26T11:16:26.158Z,3.90
2019-05-26T11:21:32.368Z,4.60
2019-05-26T11:26:38.317Z,4.10
2019-05-26T11:31:46.642Z,5.03
2019-05-26T11:36:53.516Z,6.63
2019-05-26T11:42:12.270Z,6.30
2019-05-26T11:47:06.405Z,4.77
2019-05-26T11:52:12.039Z,4.57
2019-05-26T11:57:17.636Z,3.60
2019-05-26T12:02:25.538Z,4.07
2019-05-26T12:07:31.338Z,4.60
2019-05-26T12:12:36.912Z,4.63
2019-05-26T12:17:42.861Z,5.33
2019-05-26T12:22:48.457Z,6.03
2019-05-26T12:27:54.462Z,3.73
2019-05-26T12:33:00.063Z,4.10
2019-05-26T12:38:07.951Z,3.67
2019-05-26T12:43:21.336Z,4.40
2019-05-26T12:48:26.823Z,3.60
2019-05-26T12:53:36.994Z,3.43
2019-05-26T12:58:43.960Z,3.87
2019-05-26T13:03:50.534Z,3.30
2019-05-26T13:08:56.023Z,3.67
2019-05-26T13:14:01.950Z,3.23
2019-05-26T13:19:10.242Z,3.90
2019-05-26T13:24:18.587Z,3.80
2019-05-26T13:29:25.736Z,5.50
2019-05-26T13:34:30.152Z,3.77
2019-05-26T13:39:35.686Z,3.40
2019-05-26T13:44:42.680Z,3.57
2019-05-26T13:49:48.233Z,4.87
2019-05-26T13:54:53.659Z,3.97
2019-05-26T13:59:59.159Z,3.87
2019-05-26T14:05:06.717Z,3.23
2019-05-26T14:10:12.744Z,3.60
2019-05-26T14:15:18.722Z,3.50
2019-05-26T14:20:32.728Z,4.13
2019-05-26T14:25:38.766Z,2.97
2019-05-26T14:30:44.285Z,3.10
2019-05-26T14:35:50.269Z,3.60
2019-05-26T14:40:55.855Z,2.93
2019-05-26T14:46:01.731Z,2.73
2019-05-26T14:51:07.498Z,4.57
2019-05-26T14:56:13.038Z,3.50
2019-05-26T15:01:18.689Z,3.10
2019-05-26T15:06:24.236Z,2.80
2019-05-26T15:11:29.790Z,2.90
2019-05-26T15:16:35.358Z,2.87
2019-05-26T15:21:40.950Z,2.50
2019-05-26T15:26:46.586Z,2.60
2019-05-26T15:31:52.188Z,4.90
2019-05-26T15:36:57.753Z,3.50
2019-05-26T15:42:03.544Z,3.23
2019-05-26T15:47:10.685Z,3.07
2019-05-26T16:47:21.998Z,2.77
2019-05-26T16:52:27.965Z,3.70
2019-05-26T16:57:33.425Z,4.10
2019-05-26T17:02:39.046Z,2.40
2019-05-26T17:07:44.594Z,4.40
2019-05-26T17:12:52.840Z,2.63
2019-05-26T17:17:58.423Z,2.47
2019-05-26T17:23:05.296Z,2.47
2019-05-26T17:28:11.027Z,2.90
2019-05-26T17:33:17.310Z,2.33
2019-05-26T17:38:22.886Z,2.77
2019-05-26T17:43:29.487Z,2.50
2019-05-26T17:48:35.548Z,2.87
2019-05-26T17:53:41.853Z,5.10
2019-05-26T17:58:48.128Z,3.50
2019-05-26T18:03:53.885Z,2.80
2019-05-26T18:09:00.471Z,2.20
2019-05-26T18:14:07.583Z,2.60
2019-05-26T18:19:13.654Z,3.20
2019-05-26T18:24:22.308Z,3.00
2019-05-26T18:29:29.854Z,3.00
2019-05-26T18:34:36.918Z,4.60
2019-05-26T18:39:42.588Z,5.00
2019-05-26T18:44:53.329Z,3.70
2019-05-26T18:50:01.855Z,3.47
2019-05-26T18:55:11.052Z,3.73
2019-05-26T19:00:18.481Z,3.00
2019-05-26T19:05:33.455Z,3.50
2019-05-26T19:10:35.364Z,4.57
2019-05-26T19:15:41.309Z,3.03
2019-05-26T19:20:48.829Z,3.67
2019-05-26T19:25:55.898Z,3.23
2019-05-26T19:31:01.585Z,3.20
2019-05-26T19:36:09.659Z,3.63
2019-05-26T19:41:18.769Z,2.73
2019-05-26T19:46:27.033Z,2.60
2019-05-26T19:51:34.136Z,2.93
2019-05-26T19:56:45.614Z,2.80
2019-05-26T20:01:52.929Z,3.40
2019-05-26T20:07:02.290Z,3.10
2019-05-26T20:12:11.332Z,3.40
2019-05-26T20:17:17.001Z,4.43
2019-05-26T20:22:24.527Z,2.90
2019-05-26T20:27:30.624Z,3.40
2019-05-26T20:32:37.644Z,3.33
2019-05-26T20:37:44.766Z,5.10
2019-05-26T20:42:50.568Z,4.80
2019-05-26T20:47:56.365Z,2.93
2019-05-26T20:53:02.441Z,2.80
2019-05-26T20:58:09.050Z,3.27
2019-05-26T21:03:14.700Z,3.50
2019-05-26T21:08:20.297Z,2.90
2019-05-26T21:13:28.102Z,4.13
2019-05-26T21:18:33.726Z,3.30
2019-05-26T21:23:39.789Z,2.90
2019-05-26T21:28:45.571Z,3.50
2019-05-26T21:33:52.445Z,4.93
2019-05-26T21:38:57.994Z,3.80
2019-05-26T21:44:03.573Z,3.17
2019-05-26T21:49:09.155Z,3.10
2019-05-26T21:54:15.015Z,3.17
2019-05-26T21:59:22.287Z,3.40
2019-05-26T22:04:27.734Z,3.60
2019-05-26T22:09:33.396Z,3.90
2019-05-26T22:14:38.986Z,3.13
2019-05-26T22:19:44.543Z,3.23
2019-05-26T22:24:49.996Z,3.40
2019-05-26T22:29:55.550Z,3.13
2019-05-26T22:35:01.064Z,3.20
2019-05-26T22:40:08.361Z,3.80
2019-05-26T22:45:13.968Z,5.27
2019-05-26T22:50:19.488Z,3.60
2019-05-26T22:55:25.055Z,4.20
2019-05-26T23:00:30.681Z,3.63
2019-05-26T23:05:36.221Z,3.60
2019-05-26T23:10:42.274Z,3.50
2019-05-26T23:15:47.814Z,3.90
2019-05-26T23:20:54.425Z,4.17
2019-05-26T23:25:59.932Z,5.10
2019-05-26T23:31:05.835Z,4.07
2019-05-26T23:36:11.487Z,4.30
2019-05-26T23:41:16.999Z,4.70
2019-05-26T23:46:22.417Z,5.07
2019-05-26T23:51:27.871Z,4.33
2019-05-26T23:56:33.303Z,4.40
